sensor_id;sensor_type;location;lat;lon;timestamp;temperature;humidity
60860;DHT22;46694;54.382;9.708;2023-11-19T00:01:08;5.60;99.90
60860;DHT22;46694;54.382;9.708;2023-11-19T00:03:34;5.60;99.90
60860;DHT22;46694;54.382;9.708;2023-11-19T00:06:01;5.60;99.90
60860;DHT22;46694;54.382;9.708;2023-11-19T00:08:26;5.60;99.90
60860;DHT22;46694;54.382;9.708;2023-11-19T00:10:52;5.60;99.90
60860;DHT22;46694;54.382;9.708;2023-11-19T00:13:18;5.60;99.90
60860;DHT22;46694;54.382;9.708;2023-11-19T00:15:44;5.60;99.90
60860;DHT22;46694;54.382;9.708;2023-11-19T00:18:10;5.60;99.90
60860;DHT22;46694;54.382;9.708;2023-11-19T00:20:36;5.60;99.90
60860;DHT22;46694;54.382;9.708;2023-11-19T00:23:02;5.60;99.90
60860;DHT22;46694;54.382;9.708;2023-11-19T00:25:28;5.60;99.90
60860;DHT22;46694;54.382;9.708;2023-11-19T00:27:54;5.50;99.90
60860;DHT22;46694;54.382;9.708;2023-11-19T00:30:21;5.60;99.90
60860;DHT22;46694;54.382;9.708;2023-11-19T00:32:47;5.60;99.90
60860;DHT22;46694;54.382;9.708;2023-11-19T00:35:13;5.50;99.90
60860;DHT22;46694;54.382;9.708;2023-11-19T00:37:41;5.50;99.90
60860;DHT22;46694;54.382;9.708;2023-11-19T00:40:11;5.60;99.90
60860;DHT22;46694;54.382;9.708;2023-11-19T00:42:37;5.60;99.90
60860;DHT22;46694;54.382;9.708;2023-11-19T00:45:03;5.60;99.90
60860;DHT22;46694;54.382;9.708;2023-11-19T00:47:33;5.60;99.90
60860;DHT22;46694;54.382;9.708;2023-11-19T00:50:01;5.60;99.90
60860;DHT22;46694;54.382;9.708;2023-11-19T00:52:27;5.60;99.90
60860;DHT22;46694;54.382;9.708;2023-11-19T00:54:53;5.60;99.90
60860;DHT22;46694;54.382;9.708;2023-11-19T00:57:19;5.60;99.90
60860;DHT22;46694;54.382;9.708;2023-11-19T00:59:45;5.60;99.90
60860;DHT22;46694;54.382;9.708;2023-11-19T01:02:12;5.60;99.90
60860;DHT22;46694;54.382;9.708;2023-11-19T01:04:39;5.60;99.90
60860;DHT22;46694;54.382;9.708;2023-11-19T01:07:05;5.60;99.90
60860;DHT22;46694;54.382;9.708;2023-11-19T01:09:32;5.60;99.90
60860;DHT22;46694;54.382;9.708;2023-11-19T01:12:00;5.60;99.90
60860;DHT22;46694;54.382;9.708;2023-11-19T01:14:27;5.60;99.90
60860;DHT22;46694;54.382;9.708;2023-11-19T01:16:54;5.60;99.90
60860;DHT22;46694;54.382;9.708;2023-11-19T01:19:22;5.60;99.90
60860;DHT22;46694;54.382;9.708;2023-11-19T01:21:50;5.60;99.90
60860;DHT22;46694;54.382;9.708;2023-11-19T01:24:16;5.60;99.90
60860;DHT22;46694;54.382;9.708;2023-11-19T01:26:43;5.60;99.90
60860;DHT22;46694;54.382;9.708;2023-11-19T01:29:15;5.60;99.90
60860;DHT22;46694;54.382;9.708;2023-11-19T01:31:42;5.60;99.90
60860;DHT22;46694;54.382;9.708;2023-11-19T01:34:08;5.60;99.90
60860;DHT22;46694;54.382;9.708;2023-11-19T01:36:34;5.60;99.90
60860;DHT22;46694;54.382;9.708;2023-11-19T01:39:00;5.60;99.90
60860;DHT22;46694;54.382;9.708;2023-11-19T01:41:26;5.60;99.90
60860;DHT22;46694;54.382;9.708;2023-11-19T01:43:53;5.60;99.90
60860;DHT22;46694;54.382;9.708;2023-11-19T01:46:19;5.60;99.90
60860;DHT22;46694;54.382;9.708;2023-11-19T01:48:46;5.60;99.90
60860;DHT22;46694;54.382;9.708;2023-11-19T01:51:16;5.70;99.90
60860;DHT22;46694;54.382;9.708;2023-11-19T01:53:43;5.70;99.90
60860;DHT22;46694;54.382;9.708;2023-11-19T01:56:11;5.70;99.90
60860;DHT22;46694;54.382;9.708;2023-11-19T01:58:37;5.60;99.90
60860;DHT22;46694;54.382;9.708;2023-11-19T02:01:05;5.70;99.90
60860;DHT22;46694;54.382;9.708;2023-11-19T02:03:33;5.60;99.90
60860;DHT22;46694;54.382;9.708;2023-11-19T02:05:59;5.60;99.90
60860;DHT22;46694;54.382;9.708;2023-11-19T02:08:26;5.60;99.90
60860;DHT22;46694;54.382;9.708;2023-11-19T02:10:52;5.60;99.90
60860;DHT22;46694;54.382;9.708;2023-11-19T02:13:22;5.60;99.90
60860;DHT22;46694;54.382;9.708;2023-11-19T02:15:48;5.60;99.90
60860;DHT22;46694;54.382;9.708;2023-11-19T02:18:32;5.60;99.90
60860;DHT22;46694;54.382;9.708;2023-11-19T02:20:59;5.60;99.90
60860;DHT22;46694;54.382;9.708;2023-11-19T02:23:27;5.60;99.90
60860;DHT22;46694;54.382;9.708;2023-11-19T02:28:28;5.70;99.90
60860;DHT22;46694;54.382;9.708;2023-11-19T02:30:54;5.70;99.90
60860;DHT22;46694;54.382;9.708;2023-11-19T02:33:20;5.70;99.90
60860;DHT22;46694;54.382;9.708;2023-11-19T02:35:46;5.70;99.90
60860;DHT22;46694;54.382;9.708;2023-11-19T02:38:11;5.70;99.90
60860;DHT22;46694;54.382;9.708;2023-11-19T02:40:39;5.70;99.90
60860;DHT22;46694;54.382;9.708;2023-11-19T02:43:05;5.70;99.90
60860;DHT22;46694;54.382;9.708;2023-11-19T02:45:31;5.70;99.90
60860;DHT22;46694;54.382;9.708;2023-11-19T02:47:56;5.80;99.90
60860;DHT22;46694;54.382;9.708;2023-11-19T02:50:22;5.80;99.90
60860;DHT22;46694;54.382;9.708;2023-11-19T02:52:53;5.70;99.90
60860;DHT22;46694;54.382;9.708;2023-11-19T02:55:22;5.80;99.90
60860;DHT22;46694;54.382;9.708;2023-11-19T02:57:49;5.80;99.90
60860;DHT22;46694;54.382;9.708;2023-11-19T03:00:21;5.80;99.90
60860;DHT22;46694;54.382;9.708;2023-11-19T03:02:56;5.80;99.90
60860;DHT22;46694;54.382;9.708;2023-11-19T03:05:26;5.80;99.90
60860;DHT22;46694;54.382;9.708;2023-11-19T03:07:55;5.80;99.90
60860;DHT22;46694;54.382;9.708;2023-11-19T03:10:22;5.80;99.90
60860;DHT22;46694;54.382;9.708;2023-11-19T03:12:48;5.80;99.90
60860;DHT22;46694;54.382;9.708;2023-11-19T03:15:13;5.80;99.90
60860;DHT22;46694;54.382;9.708;2023-11-19T03:17:40;5.80;99.90
60860;DHT22;46694;54.382;9.708;2023-11-19T03:20:08;5.80;99.90
60860;DHT22;46694;54.382;9.708;2023-11-19T03:22:38;5.80;99.90
60860;DHT22;46694;54.382;9.708;2023-11-19T03:25:05;5.80;99.90
60860;DHT22;46694;54.382;9.708;2023-11-19T03:27:36;5.80;99.90
60860;DHT22;46694;54.382;9.708;2023-11-19T03:30:08;5.80;99.90
60860;DHT22;46694;54.382;9.708;2023-11-19T03:32:37;5.80;99.90
60860;DHT22;46694;54.382;9.708;2023-11-19T03:35:04;5.80;99.90
60860;DHT22;46694;54.382;9.708;2023-11-19T03:37:33;5.80;99.90
60860;DHT22;46694;54.382;9.708;2023-11-19T03:39:59;5.80;99.90
60860;DHT22;46694;54.382;9.708;2023-11-19T03:42:26;5.80;99.90
60860;DHT22;46694;54.382;9.708;2023-11-19T03:44:53;5.80;99.90
60860;DHT22;46694;54.382;9.708;2023-11-19T03:47:19;5.80;99.90
60860;DHT22;46694;54.382;9.708;2023-11-19T03:49:49;5.80;99.90
60860;DHT22;46694;54.382;9.708;2023-11-19T03:52:16;5.80;99.90
60860;DHT22;46694;54.382;9.708;2023-11-19T03:54:42;5.80;99.90
60860;DHT22;46694;54.382;9.708;2023-11-19T03:57:08;5.80;99.90
60860;DHT22;46694;54.382;9.708;2023-11-19T03:59:36;5.80;99.90
60860;DHT22;46694;54.382;9.708;2023-11-19T04:02:02;5.80;99.90
60860;DHT22;46694;54.382;9.708;2023-11-19T04:04:28;5.80;99.90
60860;DHT22;46694;54.382;9.708;2023-11-19T04:06:55;5.80;99.90
60860;DHT22;46694;54.382;9.708;2023-11-19T04:09:21;5.80;99.90
60860;DHT22;46694;54.382;9.708;2023-11-19T04:11:48;5.80;99.90
60860;DHT22;46694;54.382;9.708;2023-11-19T04:14:14;5.80;99.90
60860;DHT22;46694;54.382;9.708;2023-11-19T04:16:41;5.90;99.90
60860;DHT22;46694;54.382;9.708;2023-11-19T04:19:07;5.90;99.90
60860;DHT22;46694;54.382;9.708;2023-11-19T04:21:33;5.80;99.90
60860;DHT22;46694;54.382;9.708;2023-11-19T04:23:58;5.90;99.90
60860;DHT22;46694;54.382;9.708;2023-11-19T04:26:24;5.90;99.90
60860;DHT22;46694;54.382;9.708;2023-11-19T04:28:50;5.90;99.90
60860;DHT22;46694;54.382;9.708;2023-11-19T04:31:16;5.90;99.90
60860;DHT22;46694;54.382;9.708;2023-11-19T04:33:43;5.90;99.90
60860;DHT22;46694;54.382;9.708;2023-11-19T04:36:12;5.90;99.90
60860;DHT22;46694;54.382;9.708;2023-11-19T04:38:39;5.90;99.90
60860;DHT22;46694;54.382;9.708;2023-11-19T04:41:05;5.90;99.90
60860;DHT22;46694;54.382;9.708;2023-11-19T04:43:32;5.90;99.90
60860;DHT22;46694;54.382;9.708;2023-11-19T04:45:58;5.90;99.90
60860;DHT22;46694;54.382;9.708;2023-11-19T04:48:24;5.90;99.90
60860;DHT22;46694;54.382;9.708;2023-11-19T04:50:50;6.00;99.90
60860;DHT22;46694;54.382;9.708;2023-11-19T04:53:19;6.00;99.90
60860;DHT22;46694;54.382;9.708;2023-11-19T04:55:45;6.00;99.90
60860;DHT22;46694;54.382;9.708;2023-11-19T04:58:11;6.00;99.90
60860;DHT22;46694;54.382;9.708;2023-11-19T05:00:37;6.00;99.90
60860;DHT22;46694;54.382;9.708;2023-11-19T05:03:02;6.10;99.90
60860;DHT22;46694;54.382;9.708;2023-11-19T05:05:28;6.10;99.90
60860;DHT22;46694;54.382;9.708;2023-11-19T05:07:54;6.10;99.90
60860;DHT22;46694;54.382;9.708;2023-11-19T05:10:20;6.10;99.90
60860;DHT22;46694;54.382;9.708;2023-11-19T05:12:46;6.10;99.90
60860;DHT22;46694;54.382;9.708;2023-11-19T05:15:12;6.10;99.90
60860;DHT22;46694;54.382;9.708;2023-11-19T05:17:40;6.10;99.90
60860;DHT22;46694;54.382;9.708;2023-11-19T05:20:06;6.20;99.90
60860;DHT22;46694;54.382;9.708;2023-11-19T05:22:42;6.20;99.90
60860;DHT22;46694;54.382;9.708;2023-11-19T05:25:08;6.20;99.90
60860;DHT22;46694;54.382;9.708;2023-11-19T05:27:36;6.20;99.90
60860;DHT22;46694;54.382;9.708;2023-11-19T05:30:04;6.30;99.90
60860;DHT22;46694;54.382;9.708;2023-11-19T05:32:33;6.30;99.90
60860;DHT22;46694;54.382;9.708;2023-11-19T05:34:59;6.40;99.90
60860;DHT22;46694;54.382;9.708;2023-11-19T05:37:24;6.40;99.90
60860;DHT22;46694;54.382;9.708;2023-11-19T05:39:50;6.40;99.90
60860;DHT22;46694;54.382;9.708;2023-11-19T05:42:16;6.40;99.90
60860;DHT22;46694;54.382;9.708;2023-11-19T05:44:42;6.50;99.90
60860;DHT22;46694;54.382;9.708;2023-11-19T05:47:08;6.50;99.90
60860;DHT22;46694;54.382;9.708;2023-11-19T05:49:34;6.50;99.90
60860;DHT22;46694;54.382;9.708;2023-11-19T05:52:00;6.50;99.90
60860;DHT22;46694;54.382;9.708;2023-11-19T05:54:28;6.50;99.90
60860;DHT22;46694;54.382;9.708;2023-11-19T05:56:54;6.60;99.90
60860;DHT22;46694;54.382;9.708;2023-11-19T05:59:20;6.50;99.90
60860;DHT22;46694;54.382;9.708;2023-11-19T06:01:48;6.50;99.90
60860;DHT22;46694;54.382;9.708;2023-11-19T06:04:14;6.50;99.90
60860;DHT22;46694;54.382;9.708;2023-11-19T06:06:40;6.60;99.90
60860;DHT22;46694;54.382;9.708;2023-11-19T06:09:06;6.60;99.90
60860;DHT22;46694;54.382;9.708;2023-11-19T06:11:33;6.70;99.90
60860;DHT22;46694;54.382;9.708;2023-11-19T06:14:01;6.70;99.90
60860;DHT22;46694;54.382;9.708;2023-11-19T06:16:28;6.70;99.90
60860;DHT22;46694;54.382;9.708;2023-11-19T06:18:54;6.70;99.90
60860;DHT22;46694;54.382;9.708;2023-11-19T06:21:20;6.70;99.90
60860;DHT22;46694;54.382;9.708;2023-11-19T06:23:46;6.80;99.90
60860;DHT22;46694;54.382;9.708;2023-11-19T06:26:11;6.80;99.90
60860;DHT22;46694;54.382;9.708;2023-11-19T06:28:37;6.80;99.90
60860;DHT22;46694;54.382;9.708;2023-11-19T06:31:04;6.90;99.90
60860;DHT22;46694;54.382;9.708;2023-11-19T06:33:30;6.90;99.90
60860;DHT22;46694;54.382;9.708;2023-11-19T06:35:55;6.90;99.90
60860;DHT22;46694;54.382;9.708;2023-11-19T06:38:21;6.90;99.90
60860;DHT22;46694;54.382;9.708;2023-11-19T06:40:47;6.90;99.90
60860;DHT22;46694;54.382;9.708;2023-11-19T06:43:13;7.00;99.90
60860;DHT22;46694;54.382;9.708;2023-11-19T06:45:39;7.00;99.90
60860;DHT22;46694;54.382;9.708;2023-11-19T06:48:05;7.00;99.90
60860;DHT22;46694;54.382;9.708;2023-11-19T06:50:32;7.00;99.90
60860;DHT22;46694;54.382;9.708;2023-11-19T06:52:58;7.00;99.90
60860;DHT22;46694;54.382;9.708;2023-11-19T06:55:24;7.00;99.90
60860;DHT22;46694;54.382;9.708;2023-11-19T06:57:51;7.10;99.90
60860;DHT22;46694;54.382;9.708;2023-11-19T07:00:17;7.10;99.90
60860;DHT22;46694;54.382;9.708;2023-11-19T07:02:44;7.10;99.90
60860;DHT22;46694;54.382;9.708;2023-11-19T07:05:10;7.10;99.90
60860;DHT22;46694;54.382;9.708;2023-11-19T07:07:37;7.20;99.90
60860;DHT22;46694;54.382;9.708;2023-11-19T07:10:03;7.20;99.90
60860;DHT22;46694;54.382;9.708;2023-11-19T07:12:31;7.30;99.90
60860;DHT22;46694;54.382;9.708;2023-11-19T07:14:57;7.40;99.90
60860;DHT22;46694;54.382;9.708;2023-11-19T07:17:23;7.50;99.90
60860;DHT22;46694;54.382;9.708;2023-11-19T07:19:49;7.70;99.90
60860;DHT22;46694;54.382;9.708;2023-11-19T07:22:15;8.00;99.90
60860;DHT22;46694;54.382;9.708;2023-11-19T07:24:41;8.20;99.90
60860;DHT22;46694;54.382;9.708;2023-11-19T07:27:07;8.50;99.90
60860;DHT22;46694;54.382;9.708;2023-11-19T07:29:34;8.70;99.90
60860;DHT22;46694;54.382;9.708;2023-11-19T07:32:00;8.90;99.90
60860;DHT22;46694;54.382;9.708;2023-11-19T07:34:27;9.10;99.90
60860;DHT22;46694;54.382;9.708;2023-11-19T07:36:54;9.20;99.90
60860;DHT22;46694;54.382;9.708;2023-11-19T07:39:22;9.40;99.90
60860;DHT22;46694;54.382;9.708;2023-11-19T07:41:48;9.50;99.90
60860;DHT22;46694;54.382;9.708;2023-11-19T07:44:14;9.60;99.90
60860;DHT22;46694;54.382;9.708;2023-11-19T07:46:40;9.60;99.90
60860;DHT22;46694;54.382;9.708;2023-11-19T07:49:07;9.70;99.90
60860;DHT22;46694;54.382;9.708;2023-11-19T07:51:33;9.70;99.90
60860;DHT22;46694;54.382;9.708;2023-11-19T07:53:58;9.80;99.90
60860;DHT22;46694;54.382;9.708;2023-11-19T07:56:24;9.80;99.90
60860;DHT22;46694;54.382;9.708;2023-11-19T07:58:50;9.90;99.90
60860;DHT22;46694;54.382;9.708;2023-11-19T08:01:15;9.90;99.90
60860;DHT22;46694;54.382;9.708;2023-11-19T08:03:41;10.00;99.90
60860;DHT22;46694;54.382;9.708;2023-11-19T08:06:07;10.10;99.90
60860;DHT22;46694;54.382;9.708;2023-11-19T08:08:32;10.10;99.90
60860;DHT22;46694;54.382;9.708;2023-11-19T08:11:00;10.20;99.90
60860;DHT22;46694;54.382;9.708;2023-11-19T08:13:26;10.20;99.90
60860;DHT22;46694;54.382;9.708;2023-11-19T08:15:52;10.20;99.90
60860;DHT22;46694;54.382;9.708;2023-11-19T08:18:17;10.30;99.90
60860;DHT22;46694;54.382;9.708;2023-11-19T08:20:43;10.30;99.90
60860;DHT22;46694;54.382;9.708;2023-11-19T08:23:10;10.40;99.90
60860;DHT22;46694;54.382;9.708;2023-11-19T08:25:35;10.40;99.90
60860;DHT22;46694;54.382;9.708;2023-11-19T08:28:01;10.40;99.90
60860;DHT22;46694;54.382;9.708;2023-11-19T08:30:29;10.50;99.90
60860;DHT22;46694;54.382;9.708;2023-11-19T08:32:55;10.50;99.90
60860;DHT22;46694;54.382;9.708;2023-11-19T08:35:21;10.50;99.90
60860;DHT22;46694;54.382;9.708;2023-11-19T08:37:47;10.60;99.90
60860;DHT22;46694;54.382;9.708;2023-11-19T08:40:13;10.60;99.90
60860;DHT22;46694;54.382;9.708;2023-11-19T08:42:42;10.60;99.90
60860;DHT22;46694;54.382;9.708;2023-11-19T08:45:08;10.70;99.90
60860;DHT22;46694;54.382;9.708;2023-11-19T08:47:37;10.70;99.90
60860;DHT22;46694;54.382;9.708;2023-11-19T08:50:03;10.70;99.90
60860;DHT22;46694;54.382;9.708;2023-11-19T08:52:29;10.70;99.90
60860;DHT22;46694;54.382;9.708;2023-11-19T08:54:55;10.70;99.90
60860;DHT22;46694;54.382;9.708;2023-11-19T08:57:21;10.80;99.90
60860;DHT22;46694;54.382;9.708;2023-11-19T08:59:47;10.80;99.90
60860;DHT22;46694;54.382;9.708;2023-11-19T09:02:12;10.80;99.90
60860;DHT22;46694;54.382;9.708;2023-11-19T09:04:38;10.80;99.90
60860;DHT22;46694;54.382;9.708;2023-11-19T09:07:04;10.80;99.90
60860;DHT22;46694;54.382;9.708;2023-11-19T09:09:29;10.90;99.90
60860;DHT22;46694;54.382;9.708;2023-11-19T09:11:55;10.90;99.90
60860;DHT22;46694;54.382;9.708;2023-11-19T09:14:21;10.90;99.90
60860;DHT22;46694;54.382;9.708;2023-11-19T09:16:51;10.90;99.90
60860;DHT22;46694;54.382;9.708;2023-11-19T09:19:17;11.00;99.90
60860;DHT22;46694;54.382;9.708;2023-11-19T09:21:43;11.00;99.90
60860;DHT22;46694;54.382;9.708;2023-11-19T09:24:09;11.00;99.90
60860;DHT22;46694;54.382;9.708;2023-11-19T09:26:35;11.00;99.90
60860;DHT22;46694;54.382;9.708;2023-11-19T09:29:01;11.10;99.90
60860;DHT22;46694;54.382;9.708;2023-11-19T09:31:27;11.10;99.90
60860;DHT22;46694;54.382;9.708;2023-11-19T09:33:53;11.10;99.90
60860;DHT22;46694;54.382;9.708;2023-11-19T09:36:18;11.10;99.90
60860;DHT22;46694;54.382;9.708;2023-11-19T09:38:44;11.10;99.90
60860;DHT22;46694;54.382;9.708;2023-11-19T09:41:10;11.20;99.90
60860;DHT22;46694;54.382;9.708;2023-11-19T09:43:39;11.20;99.90
60860;DHT22;46694;54.382;9.708;2023-11-19T09:46:05;11.20;99.90
60860;DHT22;46694;54.382;9.708;2023-11-19T09:48:35;11.20;99.90
60860;DHT22;46694;54.382;9.708;2023-11-19T09:51:02;11.30;99.90
60860;DHT22;46694;54.382;9.708;2023-11-19T09:53:29;11.30;99.90
60860;DHT22;46694;54.382;9.708;2023-11-19T09:55:55;11.30;99.90
60860;DHT22;46694;54.382;9.708;2023-11-19T09:58:20;11.30;99.90
60860;DHT22;46694;54.382;9.708;2023-11-19T10:00:47;11.40;99.90
60860;DHT22;46694;54.382;9.708;2023-11-19T10:03:13;11.30;99.90
60860;DHT22;46694;54.382;9.708;2023-11-19T10:05:39;11.40;99.90
60860;DHT22;46694;54.382;9.708;2023-11-19T10:08:05;11.40;99.90
60860;DHT22;46694;54.382;9.708;2023-11-19T10:10:31;11.40;99.90
60860;DHT22;46694;54.382;9.708;2023-11-19T10:12:56;11.40;99.90
60860;DHT22;46694;54.382;9.708;2023-11-19T10:15:23;11.40;99.90
60860;DHT22;46694;54.382;9.708;2023-11-19T10:17:50;11.40;99.90
60860;DHT22;46694;54.382;9.708;2023-11-19T10:20:16;11.40;99.90
60860;DHT22;46694;54.382;9.708;2023-11-19T10:22:42;11.40;99.90
60860;DHT22;46694;54.382;9.708;2023-11-19T10:25:21;11.40;99.90
60860;DHT22;46694;54.382;9.708;2023-11-19T10:27:48;11.40;99.90
60860;DHT22;46694;54.382;9.708;2023-11-19T10:30:17;11.40;99.90
60860;DHT22;46694;54.382;9.708;2023-11-19T10:32:43;11.40;99.90
60860;DHT22;46694;54.382;9.708;2023-11-19T10:35:09;11.40;99.90
60860;DHT22;46694;54.382;9.708;2023-11-19T10:37:37;11.40;99.90
60860;DHT22;46694;54.382;9.708;2023-11-19T10:40:03;11.40;99.90
60860;DHT22;46694;54.382;9.708;2023-11-19T10:42:35;11.40;99.90
60860;DHT22;46694;54.382;9.708;2023-11-19T10:45:01;11.40;99.90
60860;DHT22;46694;54.382;9.708;2023-11-19T10:47:27;11.40;99.90
60860;DHT22;46694;54.382;9.708;2023-11-19T10:49:55;11.40;99.90
60860;DHT22;46694;54.382;9.708;2023-11-19T10:52:21;11.40;99.90
60860;DHT22;46694;54.382;9.708;2023-11-19T10:54:50;11.40;99.90
60860;DHT22;46694;54.382;9.708;2023-11-19T10:57:22;11.40;99.90
60860;DHT22;46694;54.382;9.708;2023-11-19T10:59:52;11.40;99.90
60860;DHT22;46694;54.382;9.708;2023-11-19T11:02:21;11.50;99.90
60860;DHT22;46694;54.382;9.708;2023-11-19T11:04:50;11.40;99.90
60860;DHT22;46694;54.382;9.708;2023-11-19T11:07:16;11.40;99.90
60860;DHT22;46694;54.382;9.708;2023-11-19T11:09:47;11.50;99.90
60860;DHT22;46694;54.382;9.708;2023-11-19T11:12:14;11.50;99.90
60860;DHT22;46694;54.382;9.708;2023-11-19T11:14:40;11.50;99.90
60860;DHT22;46694;54.382;9.708;2023-11-19T11:17:07;11.50;99.90
60860;DHT22;46694;54.382;9.708;2023-11-19T11:19:34;11.60;99.90
60860;DHT22;46694;54.382;9.708;2023-11-19T11:22:00;11.60;99.90
60860;DHT22;46694;54.382;9.708;2023-11-19T11:30:10;11.60;99.90
60860;DHT22;46694;54.382;9.708;2023-11-19T11:39:01;11.70;99.90
60860;DHT22;46694;54.382;9.708;2023-11-19T11:41:33;11.60;99.90
60860;DHT22;46694;54.382;9.708;2023-11-19T11:43:58;11.60;99.90
60860;DHT22;46694;54.382;9.708;2023-11-19T11:49:02;11.60;99.90
60860;DHT22;46694;54.382;9.708;2023-11-19T11:54:10;11.50;99.90
60860;DHT22;46694;54.382;9.708;2023-11-19T12:02:05;11.50;99.90
60860;DHT22;46694;54.382;9.708;2023-11-19T12:04:34;11.50;99.90
60860;DHT22;46694;54.382;9.708;2023-11-19T12:07:07;11.50;99.90
60860;DHT22;46694;54.382;9.708;2023-11-19T12:09:36;11.50;99.90
60860;DHT22;46694;54.382;9.708;2023-11-19T12:22:40;11.50;99.90
60860;DHT22;46694;54.382;9.708;2023-11-19T12:25:08;11.50;99.90
60860;DHT22;46694;54.382;9.708;2023-11-19T12:27:35;11.50;99.90
60860;DHT22;46694;54.382;9.708;2023-11-19T12:30:02;11.50;99.90
60860;DHT22;46694;54.382;9.708;2023-11-19T12:35:09;11.40;99.90
60860;DHT22;46694;54.382;9.708;2023-11-19T12:37:44;11.40;99.90
60860;DHT22;46694;54.382;9.708;2023-11-19T12:40:15;11.40;99.90
60860;DHT22;46694;54.382;9.708;2023-11-19T12:42:41;11.40;99.90
60860;DHT22;46694;54.382;9.708;2023-11-19T12:45:07;11.40;99.90
60860;DHT22;46694;54.382;9.708;2023-11-19T12:47:39;11.40;99.90
60860;DHT22;46694;54.382;9.708;2023-11-19T12:50:06;11.40;99.90
60860;DHT22;46694;54.382;9.708;2023-11-19T12:52:34;11.30;99.90
60860;DHT22;46694;54.382;9.708;2023-11-19T12:55:03;11.30;99.90
60860;DHT22;46694;54.382;9.708;2023-11-19T12:57:42;11.30;99.90
60860;DHT22;46694;54.382;9.708;2023-11-19T13:00:17;11.30;99.90
60860;DHT22;46694;54.382;9.708;2023-11-19T13:05:29;11.30;99.90
60860;DHT22;46694;54.382;9.708;2023-11-19T13:08:05;11.20;99.90
60860;DHT22;46694;54.382;9.708;2023-11-19T13:10:32;11.20;99.90
60860;DHT22;46694;54.382;9.708;2023-11-19T13:13:06;11.30;99.90
60860;DHT22;46694;54.382;9.708;2023-11-19T13:15:35;11.20;99.90
60860;DHT22;46694;54.382;9.708;2023-11-19T13:18:01;11.30;99.90
60860;DHT22;46694;54.382;9.708;2023-11-19T13:20:28;11.30;99.90
60860;DHT22;46694;54.382;9.708;2023-11-19T13:22:57;11.30;99.90
60860;DHT22;46694;54.382;9.708;2023-11-19T13:25:24;11.30;99.90
60860;DHT22;46694;54.382;9.708;2023-11-19T13:27:50;11.20;99.90
60860;DHT22;46694;54.382;9.708;2023-11-19T13:30:15;11.30;99.90
60860;DHT22;46694;54.382;9.708;2023-11-19T13:32:41;11.30;99.90
60860;DHT22;46694;54.382;9.708;2023-11-19T13:35:09;11.30;99.90
60860;DHT22;46694;54.382;9.708;2023-11-19T13:37:34;11.30;99.90
60860;DHT22;46694;54.382;9.708;2023-11-19T13:40:00;11.30;99.90
60860;DHT22;46694;54.382;9.708;2023-11-19T13:42:26;11.40;99.90
60860;DHT22;46694;54.382;9.708;2023-11-19T13:44:52;11.40;99.90
60860;DHT22;46694;54.382;9.708;2023-11-19T13:47:18;11.40;99.90
60860;DHT22;46694;54.382;9.708;2023-11-19T13:49:47;11.40;99.90
60860;DHT22;46694;54.382;9.708;2023-11-19T13:52:12;11.40;99.90
60860;DHT22;46694;54.382;9.708;2023-11-19T13:54:38;11.40;99.90
60860;DHT22;46694;54.382;9.708;2023-11-19T13:57:04;11.40;99.90
60860;DHT22;46694;54.382;9.708;2023-11-19T13:59:32;11.40;99.90
60860;DHT22;46694;54.382;9.708;2023-11-19T14:01:58;11.40;99.90
60860;DHT22;46694;54.382;9.708;2023-11-19T14:04:24;11.40;99.90
60860;DHT22;46694;54.382;9.708;2023-11-19T14:06:50;11.40;99.90
60860;DHT22;46694;54.382;9.708;2023-11-19T14:09:16;11.40;99.90
60860;DHT22;46694;54.382;9.708;2023-11-19T14:11:42;11.40;99.90
60860;DHT22;46694;54.382;9.708;2023-11-19T14:14:08;11.40;99.90
60860;DHT22;46694;54.382;9.708;2023-11-19T14:16:34;11.40;99.90
60860;DHT22;46694;54.382;9.708;2023-11-19T14:19:00;11.40;99.90
60860;DHT22;46694;54.382;9.708;2023-11-19T14:21:26;11.30;99.90
60860;DHT22;46694;54.382;9.708;2023-11-19T14:23:52;11.30;99.90
60860;DHT22;46694;54.382;9.708;2023-11-19T14:26:18;11.30;99.90
60860;DHT22;46694;54.382;9.708;2023-11-19T14:28:44;11.30;99.90
60860;DHT22;46694;54.382;9.708;2023-11-19T14:31:09;11.30;99.90
60860;DHT22;46694;54.382;9.708;2023-11-19T14:33:35;11.20;99.90
60860;DHT22;46694;54.382;9.708;2023-11-19T14:36:03;11.20;99.90
60860;DHT22;46694;54.382;9.708;2023-11-19T14:38:29;11.20;99.90
60860;DHT22;46694;54.382;9.708;2023-11-19T14:40:55;11.20;99.90
60860;DHT22;46694;54.382;9.708;2023-11-19T14:43:21;11.20;99.90
60860;DHT22;46694;54.382;9.708;2023-11-19T14:45:46;11.20;99.90
60860;DHT22;46694;54.382;9.708;2023-11-19T14:48:12;11.20;99.90
60860;DHT22;46694;54.382;9.708;2023-11-19T14:50:38;11.20;99.90
60860;DHT22;46694;54.382;9.708;2023-11-19T14:53:04;11.20;99.90
60860;DHT22;46694;54.382;9.708;2023-11-19T14:55:29;11.10;99.90
60860;DHT22;46694;54.382;9.708;2023-11-19T14:57:55;11.10;99.90
60860;DHT22;46694;54.382;9.708;2023-11-19T15:00:22;11.10;99.90
60860;DHT22;46694;54.382;9.708;2023-11-19T15:02:47;11.10;99.90
60860;DHT22;46694;54.382;9.708;2023-11-19T15:05:13;11.10;99.90
60860;DHT22;46694;54.382;9.708;2023-11-19T15:07:39;11.10;99.90
60860;DHT22;46694;54.382;9.708;2023-11-19T15:10:05;11.10;99.90
60860;DHT22;46694;54.382;9.708;2023-11-19T15:12:38;11.10;99.90
60860;DHT22;46694;54.382;9.708;2023-11-19T15:15:07;11.10;99.90
60860;DHT22;46694;54.382;9.708;2023-11-19T15:17:35;11.00;99.90
60860;DHT22;46694;54.382;9.708;2023-11-19T15:20:02;11.10;99.90
60860;DHT22;46694;54.382;9.708;2023-11-19T15:22:28;11.10;99.90
60860;DHT22;46694;54.382;9.708;2023-11-19T15:24:54;11.10;99.90
60860;DHT22;46694;54.382;9.708;2023-11-19T15:27:20;11.20;99.90
60860;DHT22;46694;54.382;9.708;2023-11-19T15:29:46;11.10;99.90
60860;DHT22;46694;54.382;9.708;2023-11-19T15:32:11;11.10;99.90
60860;DHT22;46694;54.382;9.708;2023-11-19T15:34:37;11.10;99.90
60860;DHT22;46694;54.382;9.708;2023-11-19T15:37:07;11.10;99.90
60860;DHT22;46694;54.382;9.708;2023-11-19T15:39:38;11.10;99.90
60860;DHT22;46694;54.382;9.708;2023-11-19T15:42:06;11.10;99.90
60860;DHT22;46694;54.382;9.708;2023-11-19T15:44:32;11.10;99.90
60860;DHT22;46694;54.382;9.708;2023-11-19T15:46:57;11.10;99.90
60860;DHT22;46694;54.382;9.708;2023-11-19T15:49:24;11.00;99.90
60860;DHT22;46694;54.382;9.708;2023-11-19T15:51:49;11.00;99.90
60860;DHT22;46694;54.382;9.708;2023-11-19T15:54:15;11.00;99.90
60860;DHT22;46694;54.382;9.708;2023-11-19T15:56:41;11.00;99.90
60860;DHT22;46694;54.382;9.708;2023-11-19T15:59:07;11.00;99.90
60860;DHT22;46694;54.382;9.708;2023-11-19T16:01:33;11.00;99.90
60860;DHT22;46694;54.382;9.708;2023-11-19T16:03:59;11.00;99.90
60860;DHT22;46694;54.382;9.708;2023-11-19T16:06:24;11.00;99.90
60860;DHT22;46694;54.382;9.708;2023-11-19T16:08:50;11.00;99.90
60860;DHT22;46694;54.382;9.708;2023-11-19T16:11:16;11.00;99.90
60860;DHT22;46694;54.382;9.708;2023-11-19T16:13:42;11.20;99.90
60860;DHT22;46694;54.382;9.708;2023-11-19T16:16:08;11.20;99.90